Time;durP1;ratioP1;P1;durP2;ratioP2;P2;SDS_P1;SDS_P2;PMS_P1;PMS_P2;Temp;Humidity;BMP_temperature;BMP_pressure;BME280_temperature;BME280_humidity;BME280_pressure;Samples;Min_cycle;Max_cycle;Signal;HPM_P1;HPM_P2
2023/03/27 00:01:43;;;;;;;16.35;5.65;;;16.00;99.90;;;;;;5053156;28;20123;-71
2023/03/27 00:04:47;;;;;;;14.55;4.85;;;16.00;99.90;;;;;;5052797;28;20048;-72
2023/03/27 00:07:54;;;;;;;13.05;4.88;;;16.00;99.90;;;;;;5052349;28;20107;-71
2023/03/27 00:11:00;;;;;;;11.63;4.10;;;16.00;99.90;;;;;;5052143;28;20507;-71
2023/03/27 00:14:04;;;;;;;9.50;3.75;;;16.00;99.90;;;;;;5052926;28;20044;-71
2023/03/27 00:17:09;;;;;;;10.85;4.18;;;15.90;99.90;;;;;;5051573;28;20404;-72
2023/03/27 00:20:22;;;;;;;16.58;5.60;;;15.90;99.90;;;;;;5052343;28;20043;-71
2023/03/27 00:23:29;;;;;;;19.88;5.95;;;15.90;99.90;;;;;;5052198;28;20068;-72
2023/03/27 00:26:33;;;;;;;17.45;5.10;;;16.00;99.90;;;;;;5052434;28;20126;-72
2023/03/27 00:29:38;;;;;;;11.75;4.80;;;15.90;99.90;;;;;;5040249;28;20043;-72
2023/03/27 00:32:42;;;;;;;16.25;5.15;;;16.00;99.90;;;;;;5052302;28;20040;-72
2023/03/27 00:35:47;;;;;;;14.13;4.90;;;16.00;99.90;;;;;;5051604;28;20048;-73
2023/03/27 00:38:52;;;;;;;20.10;5.40;;;16.00;99.90;;;;;;5052294;28;20059;-72
2023/03/27 00:41:56;;;;;;;17.25;5.60;;;16.10;99.90;;;;;;5052341;28;20048;-72
2023/03/27 00:45:01;;;;;;;18.25;5.65;;;16.00;99.90;;;;;;5051818;28;20069;-73
2023/03/27 00:48:07;;;;;;;15.85;5.47;;;16.00;99.90;;;;;;5052096;28;20040;-72
2023/03/27 00:51:11;;;;;;;20.40;5.78;;;16.10;99.90;;;;;;5052013;28;20523;-72
2023/03/27 00:54:20;;;;;;;22.00;5.97;;;16.00;99.90;;;;;;5051502;28;20111;-73
2023/03/27 00:57:25;;;;;;;24.25;6.63;;;16.10;99.90;;;;;;5051846;28;20396;-72
2023/03/27 01:00:31;;;;;;;21.40;6.00;;;16.10;99.90;;;;;;5051925;28;20048;-73
2023/03/27 01:03:35;;;;;;;26.85;5.38;;;16.00;99.90;;;;;;5050817;28;20436;-72
2023/03/27 01:06:41;;;;;;;18.38;5.55;;;16.10;99.90;;;;;;5051037;28;20048;-70
2023/03/27 01:09:45;;;;;;;22.67;5.38;;;16.10;99.90;;;;;;5050881;28;20052;-73
2023/03/27 01:13:03;;;;;;;30.33;6.13;;;16.10;99.90;;;;;;5051185;28;20047;-73
2023/03/27 01:16:33;;;;;;;30.40;7.32;;;16.10;99.90;;;;;;5039053;28;20056;-72
2023/03/27 01:19:52;;;;;;;19.40;7.47;;;16.10;99.90;;;;;;5049624;28;20507;-72
2023/03/27 01:23:02;;;;;;;18.15;6.57;;;16.10;99.90;;;;;;5051535;28;20516;-72
2023/03/27 01:26:15;;;;;;;33.78;7.60;;;16.10;99.90;;;;;;5050676;28;20034;-72
2023/03/27 01:29:37;;;;;;;19.83;6.90;;;16.10;99.90;;;;;;5052758;28;20516;-72
2023/03/27 01:33:24;;;;;;;30.00;7.57;;;16.10;99.90;;;;;;5050802;28;20058;-72
2023/03/27 01:36:57;;;;;;;20.45;6.90;;;16.10;99.90;;;;;;5039079;28;20555;-72
2023/03/27 01:40:03;;;;;;;32.40;7.55;;;16.10;99.90;;;;;;5051655;28;20527;-72
2023/03/27 01:43:16;;;;;;;27.20;6.07;;;16.10;99.90;;;;;;5051090;28;20039;-71
2023/03/27 01:46:31;;;;;;;23.05;6.15;;;16.10;99.90;;;;;;5050157;28;20063;-72
2023/03/27 01:49:42;;;;;;;22.08;6.53;;;16.10;99.90;;;;;;5049891;28;20067;-72
2023/03/27 01:52:54;;;;;;;13.65;5.43;;;16.00;99.90;;;;;;5049862;28;20067;-72
2023/03/27 01:56:12;;;;;;;16.90;5.78;;;16.10;99.90;;;;;;5038439;28;20043;-72
2023/03/27 01:59:20;;;;;;;19.10;5.30;;;16.10;99.90;;;;;;5051055;28;20048;-72
2023/03/27 02:02:30;;;;;;;17.27;5.25;;;16.10;99.90;;;;;;5050338;28;20036;-72
2023/03/27 02:05:46;;;;;;;11.82;4.43;;;16.10;99.90;;;;;;5050336;28;20067;-72
2023/03/27 02:09:19;;;;;;;20.95;5.47;;;16.10;99.90;;;;;;5050284;28;20500;-72
2023/03/27 02:12:29;;;;;;;21.95;5.70;;;16.10;99.90;;;;;;5050788;28;20476;-72
2023/03/27 02:15:38;;;;;;;22.00;4.82;;;16.10;99.90;;;;;;5038422;28;20045;-72
2023/03/27 02:18:48;;;;;;;17.67;5.03;;;16.10;99.90;;;;;;5049934;28;20524;-71
2023/03/27 02:21:52;;;;;;;33.42;6.50;;;16.10;99.90;;;;;;5049947;28;20111;-71
2023/03/27 02:24:59;;;;;;;23.25;5.15;;;16.10;99.90;;;;;;5049641;28;20059;-72
2023/03/27 02:28:11;;;;;;;26.75;4.93;;;16.00;99.90;;;;;;5049932;28;20635;-72
2023/03/27 02:31:36;;;;;;;21.52;5.63;;;16.00;99.90;;;;;;5052246;28;20055;-72
2023/03/27 02:35:05;;;;;;;24.00;4.70;;;16.00;99.90;;;;;;5053492;28;20044;-72
2023/03/27 02:38:38;;;;;;;26.95;4.45;;;16.00;99.90;;;;;;5054546;28;20131;-72
2023/03/27 02:42:08;;;;;;;29.95;4.50;;;15.90;99.90;;;;;;5053552;28;20048;-72
2023/03/27 02:45:44;;;;;;;28.48;5.28;;;15.90;99.90;;;;;;5053503;28;20060;-72
2023/03/27 02:48:53;;;;;;;37.25;5.28;;;15.90;99.90;;;;;;5053142;28;20036;-73
2023/03/27 02:52:07;;;;;;;37.78;5.35;;;16.00;99.90;;;;;;5054170;28;20388;-73
2023/03/27 02:55:24;;;;;;;25.95;4.95;;;16.00;99.90;;;;;;5053429;28;20063;-73
2023/03/27 02:58:36;;;;;;;22.85;4.13;;;15.90;99.90;;;;;;5052972;28;20641;-72
2023/03/27 03:02:00;;;;;;;33.67;4.65;;;15.90;99.90;;;;;;5053308;28;20040;-71
2023/03/27 03:05:16;;;;;;;19.38;4.20;;;15.90;99.90;;;;;;5053117;28;20044;-72
2023/03/27 03:08:20;;;;;;;;;;;15.90;99.90;;;;;;5053552;28;20052;-72
2023/03/27 03:11:25;;;;;;;30.52;4.47;;;15.80;99.40;;;;;;5053611;28;20368;-72
2023/03/27 03:14:36;;;;;;;22.45;3.97;;;15.80;99.30;;;;;;5052941;28;20060;-72
2023/03/27 03:17:40;;;;;;;30.65;5.53;;;15.80;99.40;;;;;;5053063;28;20060;-71
2023/03/27 03:20:44;;;;;;;39.10;4.82;;;15.80;99.20;;;;;;5053897;28;20402;-71
2023/03/27 03:23:49;;;;;;;25.52;4.63;;;15.80;99.00;;;;;;5052485;28;20052;-72
2023/03/27 03:26:54;;;;;;;37.42;5.85;;;15.80;98.90;;;;;;5052654;28;20369;-72
2023/03/27 03:30:00;;;;;;;38.33;5.20;;;15.70;98.50;;;;;;5052461;28;20044;-72
2023/03/27 03:33:05;;;;;;;30.70;5.55;;;15.70;98.20;;;;;;5052669;28;20377;-71
2023/03/27 03:36:13;;;;;;;29.70;5.15;;;15.70;98.20;;;;;;5052556;28;20040;-71
2023/03/27 03:39:18;;;;;;;37.40;5.93;;;15.70;98.40;;;;;;5052725;28;20048;-72
2023/03/27 03:42:26;;;;;;;36.92;4.75;;;15.70;98.30;;;;;;5051333;28;20388;-71
2023/03/27 03:45:30;;;;;;;36.28;4.80;;;15.70;98.20;;;;;;5052158;28;20108;-71
2023/03/27 03:48:35;;;;;;;22.63;4.20;;;15.70;98.20;;;;;;5052389;28;20393;-72
2023/03/27 03:51:39;;;;;;;34.35;5.82;;;15.70;98.10;;;;;;5052263;28;20052;-72
2023/03/27 03:54:44;;;;;;;32.50;4.85;;;15.70;98.30;;;;;;5052044;28;20040;-71
2023/03/27 03:57:49;;;;;;;27.88;4.93;;;15.60;98.20;;;;;;5051937;28;20051;-72
2023/03/27 04:01:11;;;;;;;34.25;5.50;;;15.60;98.20;;;;;;5052390;28;20365;-72
2023/03/27 04:04:25;;;;;;;32.45;5.65;;;15.50;98.30;;;;;;5042112;28;20060;-72
2023/03/27 04:07:39;;;;;;;27.05;4.97;;;15.50;98.40;;;;;;5052087;28;20047;-72
2023/03/27 04:10:56;;;;;;;39.67;6.18;;;15.50;98.60;;;;;;5040603;28;20051;-72
2023/03/27 04:14:38;;;;;;;48.30;8.05;;;15.50;98.60;;;;;;5050322;28;20136;-72
2023/03/27 04:17:56;;;;;;;33.47;4.80;;;15.50;98.60;;;;;;5038561;28;20051;-71
2023/03/27 04:21:01;;;;;;;28.63;6.55;;;15.50;98.90;;;;;;5051638;28;20048;-72
2023/03/27 04:24:07;;;;;;;40.83;5.65;;;15.50;98.80;;;;;;5051353;28;20067;-72
2023/03/27 04:27:31;;;;;;;31.83;5.35;;;15.50;98.50;;;;;;5052602;28;20036;-72
2023/03/27 04:30:37;;;;;;;42.80;6.65;;;15.50;98.70;;;;;;5039865;28;20048;-72
2023/03/27 04:34:00;;;;;;;44.42;6.32;;;15.50;98.60;;;;;;5056190;28;20108;-72
2023/03/27 04:37:26;;;;;;;29.00;5.25;;;15.50;98.70;;;;;;5055094;28;20056;-72
2023/03/27 04:40:47;;;;;;;45.65;6.05;;;15.50;98.80;;;;;;5052509;28;20043;-71
2023/03/27 04:43:54;;;;;;;49.33;6.28;;;15.50;98.90;;;;;;5040231;28;20511;-71
2023/03/27 04:47:00;;;;;;;52.15;7.40;;;15.40;99.00;;;;;;5051640;28;20036;-73
2023/03/27 04:50:06;;;;;;;43.08;6.57;;;15.40;99.20;;;;;;5051462;28;20043;-72
2023/03/27 04:53:12;;;;;;;42.83;6.53;;;15.40;99.30;;;;;;5051713;28;20056;-72
2023/03/27 04:56:22;;;;;;;37.35;5.32;;;15.40;99.30;;;;;;5051801;28;20063;-70
2023/03/27 04:59:33;;;;;;;40.65;5.55;;;15.40;99.40;;;;;;5052251;28;20052;-73
2023/03/27 05:02:56;;;;;;;43.13;7.70;;;15.40;99.50;;;;;;5054732;28;20040;-72
2023/03/27 05:06:16;;;;;;;44.47;6.85;;;15.40;99.50;;;;;;5057081;28;20397;-72
2023/03/27 05:09:26;;;;;;;34.40;5.22;;;15.50;99.30;;;;;;5042901;28;20044;-72
2023/03/27 05:12:30;;;;;;;38.55;6.10;;;15.50;99.30;;;;;;5042050;28;20055;-73
2023/03/27 05:15:38;;;;;;;36.50;6.80;;;15.50;99.60;;;;;;5052318;28;20048;-72
2023/03/27 05:18:44;;;;;;;35.95;6.63;;;15.50;99.70;;;;;;5051538;28;20055;-72
2023/03/27 05:21:50;;;;;;;32.70;5.45;;;15.40;99.70;;;;;;5051948;28;20044;-73
2023/03/27 05:24:54;;;;;;;48.97;6.70;;;15.60;99.80;;;;;;5052494;28;20076;-74
2023/03/27 05:28:00;;;;;;;29.77;5.72;;;15.60;99.90;;;;;;5051829;28;20043;-71
2023/03/27 05:31:09;;;;;;;32.40;6.05;;;15.60;99.60;;;;;;5041488;28;20187;-71
2023/03/27 05:34:27;;;;;;;26.45;4.72;;;15.60;99.80;;;;;;5052875;28;20504;-73
2023/03/27 05:37:35;;;;;;;39.95;6.28;;;15.60;99.80;;;;;;5054886;28;20056;-72
2023/03/27 05:40:56;;;;;;;42.42;6.05;;;15.70;99.80;;;;;;5052871;28;20507;-72
2023/03/27 05:44:02;;;;;;;48.22;6.70;;;15.70;99.80;;;;;;5052382;28;20052;-71
2023/03/27 05:47:11;;;;;;;40.90;6.57;;;15.70;99.80;;;;;;5050894;28;20040;-71
2023/03/27 05:50:19;;;;;;;43.65;7.22;;;15.80;99.80;;;;;;5043177;28;20047;-73
2023/03/27 05:53:24;;;;;;;31.55;5.70;;;15.80;99.80;;;;;;5053437;28;20040;-72
2023/03/27 05:56:47;;;;;;;34.53;5.90;;;15.80;99.70;;;;;;5051614;28;20107;-72
2023/03/27 05:59:51;;;;;;;44.70;5.82;;;15.80;99.70;;;;;;5051869;28;20040;-73
2023/03/27 06:03:00;;;;;;;40.10;6.68;;;15.80;99.70;;;;;;5053821;28;20044;-73
2023/03/27 06:06:22;;;;;;;45.10;6.55;;;15.80;99.80;;;;;;5055996;28;20060;-72
2023/03/27 06:09:35;;;;;;;49.50;7.05;;;15.80;99.90;;;;;;5054786;28;20049;-73
2023/03/27 06:13:10;;;;;;;44.25;6.10;;;15.90;99.80;;;;;;5059756;28;20040;-74
2023/03/27 06:16:26;;;;;;;53.78;6.13;;;16.40;99.90;;;;;;5056187;28;20064;-73
2023/03/27 06:19:52;;;;;;;43.70;7.07;;;17.40;98.50;;;;;;5054476;28;20060;-75
2023/03/27 06:22:58;;;;;;;36.78;7.05;;;18.50;96.40;;;;;;5056383;28;20056;-74
2023/03/27 06:26:09;;;;;;;44.72;6.97;;;18.90;94.90;;;;;;5055454;28;20381;-74
2023/03/27 06:29:13;;;;;;;49.10;6.43;;;19.40;94.30;;;;;;5054414;28;20044;-72
2023/03/27 06:32:25;;;;;;;43.60;7.18;;;19.80;93.50;;;;;;5058383;28;20048;-74
2023/03/27 06:35:31;;;;;;;30.45;5.00;;;20.10;92.80;;;;;;5057116;28;20112;-72
2023/03/27 06:39:05;;;;;;;34.65;5.43;;;20.00;92.20;;;;;;5058724;28;20064;-73
2023/03/27 06:42:10;;;;;;;28.38;5.22;;;19.70;92.30;;;;;;5043638;28;20040;-74
2023/03/27 06:45:31;;;;;;;37.15;5.47;;;19.50;92.00;;;;;;5056483;28;20385;-74
2023/03/27 06:48:54;;;;;;;32.15;5.30;;;19.40;92.50;;;;;;5055315;28;20036;-74
2023/03/27 06:51:58;;;;;;;29.63;4.57;;;19.70;91.80;;;;;;5056879;28;20413;-74
2023/03/27 06:55:02;;;;;;;34.72;5.88;;;19.80;91.70;;;;;;5058143;28;20396;-73
2023/03/27 06:58:13;;;;;;;29.48;5.13;;;19.80;91.60;;;;;;5057252;28;20056;-74
2023/03/27 07:01:17;;;;;;;32.90;5.47;;;20.10;91.30;;;;;;5059145;28;20385;-72
2023/03/27 07:04:37;;;;;;;19.52;4.28;;;20.30;90.70;;;;;;5056466;28;20406;-74
2023/03/27 07:07:52;;;;;;;29.45;4.60;;;20.50;90.30;;;;;;5046732;28;20044;-74
2023/03/27 07:11:02;;;;;;;40.35;4.85;;;20.70;89.40;;;;;;5055853;28;20384;-72
2023/03/27 07:14:08;;;;;;;20.77;4.10;;;20.90;89.00;;;;;;5043984;28;20099;-73
2023/03/27 07:17:12;;;;;;;18.63;3.95;;;20.80;87.90;;;;;;5054342;28;20515;-74
2023/03/27 07:20:29;;;;;;;37.58;6.20;;;20.50;88.80;;;;;;5052976;28;20040;-73
2023/03/27 07:23:36;;;;;;;31.83;5.70;;;19.90;93.30;;;;;;5053467;28;20064;-73
2023/03/27 07:26:44;;;;;;;29.65;5.28;;;19.30;93.40;;;;;;5054192;28;20047;-77
2023/03/27 07:29:51;;;;;;;35.40;6.25;;;18.80;93.70;;;;;;5053206;28;20067;-75
2023/03/27 07:32:58;;;;;;;34.28;6.32;;;18.70;94.40;;;;;;5053367;28;20035;-74
2023/03/27 07:36:06;;;;;;;65.35;15.85;;;18.50;95.00;;;;;;5053562;28;20048;-73
2023/03/27 07:39:19;;;;;;;41.75;6.65;;;18.40;95.10;;;;;;5052658;28;20072;-70
2023/03/27 07:42:23;;;;;;;43.00;6.80;;;18.40;95.30;;;;;;5052487;28;20040;-71
2023/03/27 07:45:46;;;;;;;44.38;6.72;;;18.70;94.60;;;;;;5039194;28;20444;-72
2023/03/27 07:48:50;;;;;;;33.28;6.45;;;19.10;93.70;;;;;;5052404;28;20040;-71
2023/03/27 07:51:59;;;;;;;38.83;6.95;;;19.00;93.50;;;;;;5052062;28;20048;-70
2023/03/27 07:55:06;;;;;;;37.40;6.03;;;18.90;93.70;;;;;;5051436;28;20040;-70
2023/03/27 07:58:20;;;;;;;40.60;6.57;;;18.70;93.70;;;;;;5054523;28;20060;-71
2023/03/27 08:01:26;;;;;;;49.05;6.55;;;18.60;93.60;;;;;;5055313;28;20044;-70
2023/03/27 08:04:31;;;;;;;48.05;6.80;;;18.50;93.50;;;;;;5051992;28;20507;-72
2023/03/27 08:08:25;;;;;;;38.33;6.18;;;18.30;94.70;;;;;;5053820;28;20052;-71
2023/03/27 08:11:21;;;;;;;39.92;5.70;;;18.10;94.80;;;;;;5045365;28;20052;-71
2023/03/27 08:14:25;;;;;;;45.58;7.55;;;17.90;94.20;;;;;;5055599;28;20052;-71
2023/03/27 08:17:34;;;;;;;44.83;6.20;;;17.80;94.50;;;;;;5054234;28;20056;-70
2023/03/27 08:20:38;;;;;;;45.53;6.88;;;17.70;94.00;;;;;;5055904;28;20112;-72
2023/03/27 08:23:42;;;;;;;45.97;6.65;;;17.70;94.50;;;;;;5054871;28;20072;-71
2023/03/27 08:27:06;;;;;;;36.75;6.75;;;17.60;94.40;;;;;;5053073;28;20044;-71
2023/03/27 08:30:15;;;;;;;44.45;6.15;;;17.40;94.20;;;;;;5054171;28;20044;-70
2023/03/27 08:33:21;;;;;;;43.47;6.15;;;17.40;94.80;;;;;;5053964;28;20044;-72
2023/03/27 08:36:26;;;;;;;39.60;6.50;;;17.30;94.40;;;;;;5051290;28;20065;-70
2023/03/27 08:39:30;;;;;;;43.28;6.47;;;17.20;94.40;;;;;;5051205;28;20408;-71
2023/03/27 08:42:42;;;;;;;34.92;6.70;;;17.20;95.00;;;;;;5052740;28;20040;-72
2023/03/27 08:45:56;;;;;;;44.28;7.18;;;17.10;94.60;;;;;;5052584;28;20071;-71
2023/03/27 08:49:17;;;;;;;44.28;7.18;;;17.00;94.10;;;;;;5051686;28;20044;-69
2023/03/27 08:52:42;;;;;;;41.65;7.15;;;17.10;94.50;;;;;;5042847;28;20040;-72
2023/03/27 08:55:52;;;;;;;44.13;6.78;;;17.10;95.10;;;;;;5040743;28;20048;-71
2023/03/27 08:59:23;;;;;;;55.65;8.68;;;17.00;94.60;;;;;;5051868;28;20079;-72
2023/03/27 09:03:10;;;;;;;44.90;6.43;;;17.00;95.00;;;;;;5041261;28;20059;-71
2023/03/27 09:06:28;;;;;;;31.15;6.97;;;17.10;95.00;;;;;;5045626;28;20052;-72
2023/03/27 09:09:47;;;;;;;34.45;5.88;;;17.20;95.20;;;;;;5051562;28;20036;-70
2023/03/27 09:13:21;;;;;;;38.80;6.60;;;17.40;94.00;;;;;;5051981;28;20400;-70
2023/03/27 09:16:48;;;;;;;37.72;5.22;;;17.50;94.20;;;;;;5052322;28;20052;-71
2023/03/27 09:20:34;;;;;;;26.13;4.80;;;17.60;93.50;;;;;;5051228;28;20060;-72
2023/03/27 09:23:46;;;;;;;32.83;5.18;;;17.60;93.30;;;;;;5051593;28;20437;-71
2023/03/27 09:27:33;;;;;;;27.88;4.68;;;17.60;93.80;;;;;;5053118;28;20056;-71
2023/03/27 09:30:56;;;;;;;11.93;2.70;;;17.60;93.70;;;;;;5052504;28;20044;-71
2023/03/27 09:34:14;;;;;;;14.60;2.92;;;17.50;92.60;;;;;;5050707;28;20048;-71
2023/03/27 09:37:18;;;;;;;9.50;1.85;;;17.40;91.10;;;;;;5053562;28;20354;-72
2023/03/27 09:40:43;;;;;;;6.10;1.58;;;17.30;90.80;;;;;;5053268;28;20048;-71
2023/03/27 09:44:02;;;;;;;9.50;1.08;;;17.40;91.40;;;;;;5051425;28;20051;-72
2023/03/27 09:47:14;;;;;;;6.43;1.65;;;17.60;90.70;;;;;;5053013;28;20393;-73
2023/03/27 09:50:40;;;;;;;8.73;1.65;;;17.60;90.10;;;;;;5053971;28;20036;-74
2023/03/27 09:53:57;;;;;;;5.65;1.50;;;17.60;88.80;;;;;;5051258;28;20040;-70
2023/03/27 09:57:09;;;;;;;4.22;1.10;;;17.70;86.30;;;;;;5051649;28;20499;-72
2023/03/27 10:00:30;;;;;;;7.47;1.23;;;17.70;89.20;;;;;;5049808;28;20044;-72
2023/03/27 10:03:42;;;;;;;5.63;1.08;;;17.80;88.70;;;;;;5050707;28;20060;-72
2023/03/27 10:07:05;;;;;;;19.27;1.48;;;17.80;85.70;;;;;;5051590;28;20044;-72
2023/03/27 10:10:24;;;;;;;25.20;2.08;;;17.80;86.80;;;;;;5052358;28;20044;-73
2023/03/27 10:13:51;;;;;;;22.90;2.42;;;17.90;86.20;;;;;;5052474;28;20040;-73
2023/03/27 10:17:00;;;;;;;16.17;1.80;;;18.30;88.70;;;;;;5054438;28;20048;-73
2023/03/27 10:20:14;;;;;;;12.43;1.27;;;18.50;85.90;;;;;;5045615;28;20060;-72
2023/03/27 10:23:24;;;;;;;11.35;1.55;;;18.70;86.60;;;;;;5050022;28;20535;-72
2023/03/27 10:26:31;;;;;;;36.38;3.38;;;18.90;86.80;;;;;;5051439;28;20048;-73
2023/03/27 10:29:36;;;;;;;18.67;1.98;;;18.90;85.40;;;;;;5050224;28;20504;-73
2023/03/27 10:32:43;;;;;;;11.38;1.08;;;18.80;84.50;;;;;;5050885;28;20048;-72
2023/03/27 10:36:10;;;;;;;8.35;0.75;;;18.80;84.60;;;;;;5050598;28;20037;-73
2023/03/27 10:39:15;;;;;;;21.42;1.85;;;18.80;82.90;;;;;;5039790;28;20071;-73
2023/03/27 10:42:31;;;;;;;29.65;2.70;;;18.80;84.10;;;;;;5041474;28;20040;-73
2023/03/27 10:45:48;;;;;;;12.75;1.23;;;18.70;82.40;;;;;;5050222;28;20048;-72
2023/03/27 10:49:24;;;;;;;8.43;1.58;;;18.50;82.80;;;;;;5050523;28;20365;-72
2023/03/27 10:52:52;;;;;;;26.83;2.67;;;18.60;82.60;;;;;;5052276;28;20267;-71
2023/03/27 10:56:30;;;;;;;3.35;1.13;;;18.70;82.70;;;;;;5054092;28;20036;-72
2023/03/27 10:59:49;;;;;;;14.80;1.58;;;19.00;83.80;;;;;;5056656;28;20048;-72
2023/03/27 11:03:21;;;;;;;3.58;1.10;;;19.20;84.40;;;;;;5043980;28;20036;-72
2023/03/27 11:06:40;;;;;;;9.43;1.30;;;19.50;83.60;;;;;;5054557;28;20060;-72
2023/03/27 11:09:56;;;;;;;18.52;1.40;;;19.50;81.60;;;;;;5054830;28;20052;-71
2023/03/27 11:13:30;;;;;;;3.03;0.77;;;19.50;82.30;;;;;;5054061;28;20036;-71
2023/03/27 11:16:47;;;;;;;3.78;1.00;;;19.50;80.90;;;;;;5054764;28;20056;-71
2023/03/27 11:20:55;;;;;;;5.55;1.42;;;19.50;80.30;;;;;;5093037;28;20051;-70
2023/03/27 11:24:50;;;;;;;4.68;0.80;;;19.40;82.20;;;;;;5078429;28;20155;-70
2023/03/27 11:28:24;;;;;;;2.67;0.68;;;19.30;81.70;;;;;;5053612;28;20052;-71
2023/03/27 11:31:44;;;;;;;2.30;0.70;;;19.30;81.10;;;;;;5053658;28;20044;-71
2023/03/27 11:34:59;;;;;;;3.67;0.82;;;19.20;80.00;;;;;;5052501;28;20044;-70
2023/03/27 11:38:31;;;;;;;6.53;0.88;;;19.20;80.30;;;;;;5055545;28;20052;-72
2023/03/27 11:41:38;;;;;;;6.43;1.50;;;19.20;81.50;;;;;;5053378;28;20480;-72
2023/03/27 11:44:43;;;;;;;5.60;1.33;;;19.10;79.70;;;;;;5053402;28;20107;-71
2023/03/27 11:47:50;;;;;;;20.40;2.35;;;19.00;82.20;;;;;;5053243;28;20036;-70
2023/03/27 11:51:08;;;;;;;3.70;1.30;;;18.80;81.00;;;;;;5044784;28;20044;-72
2023/03/27 11:54:16;;;;;;;2.78;0.52;;;18.80;82.30;;;;;;5052487;28;20040;-69
2023/03/27 11:57:25;;;;;;;25.70;2.30;;;18.90;81.40;;;;;;5054520;28;20041;-70
2023/03/27 12:01:12;;;;;;;1.77;0.60;;;18.90;79.70;;;;;;5061148;28;20052;-70
2023/03/27 12:04:35;;;;;;;12.25;1.40;;;18.90;80.60;;;;;;5053802;28;20048;-70
2023/03/27 12:08:14;;;;;;;6.45;1.70;;;19.00;79.40;;;;;;5052422;28;20566;-70
2023/03/27 12:11:23;;;;;;;9.70;1.05;;;19.00;80.10;;;;;;5043207;28;20044;-72
2023/03/27 12:14:28;;;;;;;8.80;1.20;;;18.90;77.50;;;;;;5052355;28;20043;-71
2023/03/27 12:17:48;;;;;;;12.38;1.60;;;19.00;77.00;;;;;;5053336;28;20040;-71
2023/03/27 12:21:12;;;;;;;7.50;1.20;;;18.90;78.50;;;;;;5052052;28;20055;-70
2023/03/27 12:24:29;;;;;;;5.78;1.23;;;18.90;80.00;;;;;;5052363;28;20048;-69
2023/03/27 12:28:05;;;;;;;6.78;1.13;;;19.00;79.50;;;;;;5054153;28;20047;-71
2023/03/27 12:31:54;;;;;;;7.00;1.30;;;19.00;79.10;;;;;;5042165;28;20048;-70
2023/03/27 12:35:07;;;;;;;8.15;1.05;;;18.90;78.50;;;;;;5055533;28;20047;-69
2023/03/27 12:38:21;;;;;;;4.80;1.02;;;18.90;78.90;;;;;;5051765;28;20055;-72
2023/03/27 12:41:32;;;;;;;6.85;1.63;;;19.00;80.40;;;;;;5053483;28;20496;-71
2023/03/27 12:45:04;;;;;;;5.85;1.08;;;19.00;79.90;;;;;;5055427;28;20044;-69
2023/03/27 12:48:08;;;;;;;9.02;1.50;;;18.90;79.40;;;;;;5053261;28;20056;-72
2023/03/27 12:51:18;;;;;;;12.70;1.67;;;18.90;79.80;;;;;;5043560;28;20496;-72
2023/03/27 12:54:34;;;;;;;8.30;1.52;;;18.90;78.50;;;;;;5040567;28;20062;-72
2023/03/27 12:58:00;;;;;;;5.10;1.50;;;19.00;80.00;;;;;;5055116;28;20052;-71
2023/03/27 13:01:42;;;;;;;5.55;1.13;;;19.10;80.90;;;;;;5056656;28;20056;-68
2023/03/27 13:05:03;;;;;;;11.13;1.67;;;19.30;80.60;;;;;;5050923;28;20412;-68
2023/03/27 13:08:36;;;;;;;5.75;1.13;;;19.40;80.00;;;;;;5050959;28;20499;-69
2023/03/27 13:11:59;;;;;;;8.43;1.30;;;19.30;80.20;;;;;;5050960;28;20048;-68
2023/03/27 13:15:42;;;;;;;9.02;1.38;;;19.20;82.20;;;;;;5051141;28;20044;-68
2023/03/27 13:19:00;;;;;;;7.85;1.65;;;19.00;80.80;;;;;;5037947;28;20052;-68
2023/03/27 13:22:26;;;;;;;8.80;1.73;;;19.00;81.90;;;;;;5038048;28;20544;-69
2023/03/27 13:25:56;;;;;;;8.68;1.25;;;18.80;81.50;;;;;;5050563;28;20047;-68
2023/03/27 13:29:20;;;;;;;9.68;1.50;;;18.80;81.70;;;;;;5050454;28;20048;-68
2023/03/27 13:32:32;;;;;;;7.20;1.40;;;18.70;81.20;;;;;;5050277;28;20052;-67
2023/03/27 13:36:23;;;;;;;6.63;1.60;;;18.60;81.80;;;;;;5050767;28;20051;-68
2023/03/27 13:39:39;;;;;;;12.02;2.20;;;18.50;82.10;;;;;;5050883;28;20056;-69
2023/03/27 13:42:49;;;;;;;5.13;0.90;;;18.40;82.00;;;;;;5053812;28;20040;-73
2023/03/27 13:46:04;;;;;;;14.15;2.40;;;18.40;83.30;;;;;;5050538;28;20396;-69
2023/03/27 13:49:35;;;;;;;7.22;1.33;;;18.40;82.50;;;;;;5052816;28;20398;-70
2023/03/27 13:53:18;;;;;;;7.50;1.52;;;18.40;81.60;;;;;;5041022;28;20052;-70
2023/03/27 13:56:33;;;;;;;4.50;1.38;;;18.60;81.80;;;;;;5050958;28;20082;-71
2023/03/27 14:00:07;;;;;;;4.70;1.10;;;18.70;79.80;;;;;;5050013;28;20052;-70
2023/03/27 14:03:43;;;;;;;12.75;1.35;;;18.60;79.80;;;;;;5052859;28;20393;-69
2023/03/27 14:07:06;;;;;;;13.18;1.85;;;18.70;79.50;;;;;;5050398;28;20040;-69
2023/03/27 14:10:32;;;;;;;7.30;1.63;;;18.70;81.10;;;;;;5050151;28;20043;-70
2023/03/27 14:13:46;;;;;;;11.32;1.83;;;18.60;80.70;;;;;;5050395;28;20048;-71
2023/03/27 14:17:00;;;;;;;3.35;0.95;;;18.60;81.00;;;;;;5050598;28;20044;-72
2023/03/27 14:20:28;;;;;;;5.85;0.90;;;18.60;81.10;;;;;;5051115;28;20551;-72
2023/03/27 14:23:48;;;;;;;6.20;0.95;;;18.60;80.30;;;;;;5039074;28;20139;-71
2023/03/27 14:27:02;;;;;;;10.02;1.55;;;18.50;79.50;;;;;;5053705;28;20048;-70
2023/03/27 14:30:20;;;;;;;5.82;1.60;;;18.50;80.90;;;;;;5054735;28;20047;-73
2023/03/27 14:33:53;;;;;;;17.23;2.78;;;18.60;79.80;;;;;;5055313;28;20036;-70
2023/03/27 14:36:57;;;;;;;16.35;2.92;;;18.50;80.60;;;;;;5054704;28;20071;-69
2023/03/27 14:40:29;;;;;;;15.43;1.88;;;18.50;82.70;;;;;;5056688;28;20400;-71
2023/03/27 14:43:43;;;;;;;6.68;1.58;;;18.50;82.60;;;;;;5055502;28;20718;-69
2023/03/27 14:46:49;;;;;;;11.85;2.03;;;18.40;81.90;;;;;;5054713;28;20396;-71
2023/03/27 14:49:57;;;;;;;10.50;2.55;;;18.40;83.40;;;;;;5053255;28;20503;-71
2023/03/27 14:53:17;;;;;;;;;;;18.40;84.50;;;;;;5042282;28;20040;-69
2023/03/27 14:56:46;;;;;;;11.13;1.90;;;18.30;84.20;;;;;;5045478;28;19915;-73
2023/03/27 15:00:05;;;;;;;21.80;3.65;;;18.30;83.40;;;;;;5053006;28;20055;-69
2023/03/27 15:03:15;;;;;;;10.10;2.33;;;18.30;83.10;;;;;;5053527;28;20040;-65
2023/03/27 15:06:25;;;;;;;15.13;2.13;;;18.30;83.20;;;;;;5053001;28;20056;-70
2023/03/27 15:09:33;;;;;;;20.48;3.75;;;18.20;83.60;;;;;;5052763;28;20257;-70
2023/03/27 15:12:55;;;;;;;23.30;2.70;;;18.20;83.50;;;;;;5052999;28;20041;-70
2023/03/27 15:15:59;;;;;;;12.02;3.13;;;18.10;84.30;;;;;;5052820;28;20040;-70
2023/03/27 15:19:12;;;;;;;26.17;2.85;;;18.10;84.00;;;;;;5052856;28;20056;-71
2023/03/27 15:22:34;;;;;;;25.33;3.33;;;18.10;84.40;;;;;;5054204;28;20052;-72
2023/03/27 15:25:43;;;;;;;15.57;2.88;;;18.10;85.70;;;;;;5052873;28;20052;-69
2023/03/27 15:29:00;;;;;;;18.90;3.20;;;17.80;85.20;;;;;;5054350;28;20036;-72
2023/03/27 15:32:10;;;;;;;25.65;3.30;;;16.50;88.10;;;;;;5041255;28;20044;-70
2023/03/27 15:35:20;;;;;;;26.05;3.60;;;14.80;93.00;;;;;;5053147;28;20040;-68
2023/03/27 15:38:29;;;;;;;25.15;4.50;;;14.80;92.90;;;;;;5051879;28;20397;-70
2023/03/27 15:41:33;;;;;;;36.92;5.45;;;14.70;93.10;;;;;;5053202;28;20044;-71
2023/03/27 15:44:38;;;;;;;18.98;4.20;;;13.70;93.00;;;;;;5054830;28;20064;-70
2023/03/27 15:47:44;;;;;;;36.15;4.20;;;14.70;93.30;;;;;;5052373;28;20040;-71
2023/03/27 15:50:59;;;;;;;30.15;5.05;;;14.50;92.90;;;;;;5052543;28;20067;-69
2023/03/27 15:54:23;;;;;;;27.63;4.18;;;14.70;93.90;;;;;;5052984;28;20044;-67
2023/03/27 15:57:28;;;;;;;25.13;3.70;;;;;;;;;;5052728;28;20044;-69
2023/03/27 16:00:32;;;;;;;25.05;4.22;;;14.50;94.90;;;;;;5052583;28;20064;-69
2023/03/27 16:03:39;;;;;;;26.38;3.55;;;13.00;95.10;;;;;;5053244;28;20504;-68
2023/03/27 16:06:47;;;;;;;18.08;2.92;;;14.40;95.90;;;;;;5052916;28;20503;-68
2023/03/27 16:09:54;;;;;;;22.50;3.63;;;13.90;95.60;;;;;;5053101;28;20044;-68
2023/03/27 16:13:01;;;;;;;34.33;5.03;;;14.50;96.00;;;;;;5053176;28;20048;-68
2023/03/27 16:16:23;;;;;;;20.60;2.90;;;14.30;96.20;;;;;;5053142;28;20040;-69
2023/03/27 16:19:27;;;;;;;36.05;3.65;;;;;;;;;;5052716;28;20059;-70
2023/03/27 16:22:34;;;;;;;20.25;3.75;;;14.30;96.10;;;;;;5052663;28;20073;-69
2023/03/27 16:25:40;;;;;;;26.52;4.38;;;14.30;96.20;;;;;;5052180;28;20068;-69
2023/03/27 16:28:45;;;;;;;24.48;3.42;;;;;;;;;;5052625;28;20059;-70
2023/03/27 16:31:48;;;;;;;28.38;4.10;;;14.10;96.60;;;;;;5052412;28;20043;-69
2023/03/27 16:34:53;;;;;;;25.20;4.70;;;;;;;;;;5052494;28;20052;-68
2023/03/27 16:37:57;;;;;;;29.88;5.47;;;14.10;96.50;;;;;;5052255;28;20037;-69
2023/03/27 16:41:02;;;;;;;29.10;4.05;;;13.80;96.30;;;;;;5050805;28;20051;-70
2023/03/27 16:44:06;;;;;;;28.67;4.25;;;;;;;;;;5051289;28;20059;-69
2023/03/27 16:47:12;;;;;;;21.05;3.33;;;13.80;96.40;;;;;;5052242;28;20064;-70